sensor_id;sensor_type;location;lat;lon;timestamp;temperature;humidity
1546;DHT22;766;51.502;9.752;2023-06-22T00:00:44;19.30;99.90
1546;DHT22;766;51.502;9.752;2023-06-22T00:03:12;19.30;99.90
1546;DHT22;766;51.502;9.752;2023-06-22T00:05:44;19.40;99.90
1546;DHT22;766;51.502;9.752;2023-06-22T00:08:13;19.30;99.90
1546;DHT22;766;51.502;9.752;2023-06-22T00:10:42;19.50;99.90
1546;DHT22;766;51.502;9.752;2023-06-22T00:13:12;19.00;99.90
1546;DHT22;766;51.502;9.752;2023-06-22T00:15:41;19.10;99.90
1546;DHT22;766;51.502;9.752;2023-06-22T00:18:10;19.40;99.90
1546;DHT22;766;51.502;9.752;2023-06-22T00:20:40;19.40;99.90
1546;DHT22;766;51.502;9.752;2023-06-22T00:23:09;19.20;99.90
1546;DHT22;766;51.502;9.752;2023-06-22T00:25:38;19.10;99.90
1546;DHT22;766;51.502;9.752;2023-06-22T00:28:08;19.10;99.90
1546;DHT22;766;51.502;9.752;2023-06-22T00:30:37;19.10;99.90
1546;DHT22;766;51.502;9.752;2023-06-22T00:33:06;19.20;99.90
1546;DHT22;766;51.502;9.752;2023-06-22T00:35:35;19.10;99.90
1546;DHT22;766;51.502;9.752;2023-06-22T00:38:04;19.00;99.90
1546;DHT22;766;51.502;9.752;2023-06-22T00:40:36;19.10;99.90
1546;DHT22;766;51.502;9.752;2023-06-22T00:43:05;19.00;99.90
1546;DHT22;766;51.502;9.752;2023-06-22T00:45:33;19.30;99.90
1546;DHT22;766;51.502;9.752;2023-06-22T00:48:07;19.30;99.90
1546;DHT22;766;51.502;9.752;2023-06-22T00:50:36;19.10;99.90
1546;DHT22;766;51.502;9.752;2023-06-22T00:53:07;19.00;99.90
1546;DHT22;766;51.502;9.752;2023-06-22T00:55:37;19.20;99.90
1546;DHT22;766;51.502;9.752;2023-06-22T00:58:06;19.20;99.90
1546;DHT22;766;51.502;9.752;2023-06-22T01:00:38;19.10;99.90
1546;DHT22;766;51.502;9.752;2023-06-22T01:03:15;19.10;99.90
1546;DHT22;766;51.502;9.752;2023-06-22T01:05:45;19.00;99.90
1546;DHT22;766;51.502;9.752;2023-06-22T01:08:23;18.80;99.90
1546;DHT22;766;51.502;9.752;2023-06-22T01:11:00;18.70;99.90
1546;DHT22;766;51.502;9.752;2023-06-22T01:13:36;18.80;99.90
1546;DHT22;766;51.502;9.752;2023-06-22T01:16:09;18.90;99.90
1546;DHT22;766;51.502;9.752;2023-06-22T01:18:42;18.90;99.90
1546;DHT22;766;51.502;9.752;2023-06-22T01:21:14;19.10;99.90
1546;DHT22;766;51.502;9.752;2023-06-22T01:24:06;19.20;99.90
1546;DHT22;766;51.502;9.752;2023-06-22T01:26:43;19.20;99.90
1546;DHT22;766;51.502;9.752;2023-06-22T01:29:16;19.00;99.90
1546;DHT22;766;51.502;9.752;2023-06-22T01:31:45;18.80;99.90
1546;DHT22;766;51.502;9.752;2023-06-22T01:34:15;18.70;99.90
1546;DHT22;766;51.502;9.752;2023-06-22T01:36:44;18.80;99.90
1546;DHT22;766;51.502;9.752;2023-06-22T01:39:13;18.90;99.90
1546;DHT22;766;51.502;9.752;2023-06-22T01:41:42;18.90;99.90
1546;DHT22;766;51.502;9.752;2023-06-22T01:44:12;18.70;99.90
1546;DHT22;766;51.502;9.752;2023-06-22T01:46:42;18.80;99.90
1546;DHT22;766;51.502;9.752;2023-06-22T01:49:11;19.00;99.90
1546;DHT22;766;51.502;9.752;2023-06-22T01:51:39;18.80;99.90
1546;DHT22;766;51.502;9.752;2023-06-22T01:54:08;18.90;99.90
1546;DHT22;766;51.502;9.752;2023-06-22T01:56:36;18.70;99.90
1546;DHT22;766;51.502;9.752;2023-06-22T01:59:09;19.00;99.90
1546;DHT22;766;51.502;9.752;2023-06-22T02:01:50;19.00;99.90
1546;DHT22;766;51.502;9.752;2023-06-22T02:04:26;19.10;99.90
1546;DHT22;766;51.502;9.752;2023-06-22T02:06:59;19.20;99.90
1546;DHT22;766;51.502;9.752;2023-06-22T02:09:29;19.30;99.90
1546;DHT22;766;51.502;9.752;2023-06-22T02:12:00;19.40;99.90
1546;DHT22;766;51.502;9.752;2023-06-22T02:14:30;19.40;99.90
1546;DHT22;766;51.502;9.752;2023-06-22T02:17:00;19.40;99.90
1546;DHT22;766;51.502;9.752;2023-06-22T02:19:28;19.30;99.90
1546;DHT22;766;51.502;9.752;2023-06-22T02:22:00;19.00;99.90
1546;DHT22;766;51.502;9.752;2023-06-22T02:24:28;18.90;99.90
1546;DHT22;766;51.502;9.752;2023-06-22T02:26:59;18.90;99.90
1546;DHT22;766;51.502;9.752;2023-06-22T02:29:28;19.00;99.90
1546;DHT22;766;51.502;9.752;2023-06-22T02:31:57;19.10;99.90
1546;DHT22;766;51.502;9.752;2023-06-22T02:34:27;18.90;99.90
1546;DHT22;766;51.502;9.752;2023-06-22T02:36:55;18.80;99.90
1546;DHT22;766;51.502;9.752;2023-06-22T02:39:24;18.90;99.90
1546;DHT22;766;51.502;9.752;2023-06-22T02:41:54;19.00;99.90
1546;DHT22;766;51.502;9.752;2023-06-22T02:44:22;18.80;99.90
1546;DHT22;766;51.502;9.752;2023-06-22T02:46:51;18.80;99.90
1546;DHT22;766;51.502;9.752;2023-06-22T02:49:21;18.70;99.90
1546;DHT22;766;51.502;9.752;2023-06-22T02:51:50;18.80;99.90
1546;DHT22;766;51.502;9.752;2023-06-22T02:54:19;19.00;99.90
1546;DHT22;766;51.502;9.752;2023-06-22T02:56:48;18.80;99.90
1546;DHT22;766;51.502;9.752;2023-06-22T02:59:18;18.90;99.90
1546;DHT22;766;51.502;9.752;2023-06-22T03:01:50;18.90;99.90
1546;DHT22;766;51.502;9.752;2023-06-22T03:04:18;18.90;99.90
1546;DHT22;766;51.502;9.752;2023-06-22T03:06:47;18.80;99.90
1546;DHT22;766;51.502;9.752;2023-06-22T03:09:19;18.80;99.90
1546;DHT22;766;51.502;9.752;2023-06-22T03:11:47;18.90;99.90
1546;DHT22;766;51.502;9.752;2023-06-22T03:14:16;18.80;99.90
1546;DHT22;766;51.502;9.752;2023-06-22T03:16:44;18.70;99.90
1546;DHT22;766;51.502;9.752;2023-06-22T03:19:13;18.60;99.90
1546;DHT22;766;51.502;9.752;2023-06-22T03:21:50;18.70;99.90
1546;DHT22;766;51.502;9.752;2023-06-22T03:24:23;18.80;99.90
1546;DHT22;766;51.502;9.752;2023-06-22T03:26:51;18.90;99.90
1546;DHT22;766;51.502;9.752;2023-06-22T03:29:20;18.90;99.90
1546;DHT22;766;51.502;9.752;2023-06-22T03:31:48;19.00;99.90
1546;DHT22;766;51.502;9.752;2023-06-22T03:34:16;19.00;99.90
1546;DHT22;766;51.502;9.752;2023-06-22T03:36:45;19.20;99.90
1546;DHT22;766;51.502;9.752;2023-06-22T03:39:13;19.30;99.90
1546;DHT22;766;51.502;9.752;2023-06-22T03:41:43;19.30;99.90
1546;DHT22;766;51.502;9.752;2023-06-22T03:44:11;19.40;99.90
1546;DHT22;766;51.502;9.752;2023-06-22T03:46:40;19.40;99.90
1546;DHT22;766;51.502;9.752;2023-06-22T03:49:08;19.50;99.90
1546;DHT22;766;51.502;9.752;2023-06-22T03:51:36;19.40;99.90
1546;DHT22;766;51.502;9.752;2023-06-22T03:54:05;19.50;99.90
1546;DHT22;766;51.502;9.752;2023-06-22T03:56:33;19.50;99.90
1546;DHT22;766;51.502;9.752;2023-06-22T03:59:03;19.50;99.90
1546;DHT22;766;51.502;9.752;2023-06-22T04:01:31;19.50;99.90
1546;DHT22;766;51.502;9.752;2023-06-22T04:03:59;19.50;99.90
1546;DHT22;766;51.502;9.752;2023-06-22T04:06:28;19.60;99.90
1546;DHT22;766;51.502;9.752;2023-06-22T04:08:56;19.60;99.90
1546;DHT22;766;51.502;9.752;2023-06-22T04:11:25;19.60;99.90
1546;DHT22;766;51.502;9.752;2023-06-22T04:13:53;19.50;99.90
1546;DHT22;766;51.502;9.752;2023-06-22T04:16:23;19.70;99.90
1546;DHT22;766;51.502;9.752;2023-06-22T04:18:52;19.90;99.90
1546;DHT22;766;51.502;9.752;2023-06-22T04:21:21;19.80;99.90
1546;DHT22;766;51.502;9.752;2023-06-22T04:23:49;19.70;99.90
1546;DHT22;766;51.502;9.752;2023-06-22T04:26:17;19.50;99.90
1546;DHT22;766;51.502;9.752;2023-06-22T04:28:50;19.40;99.90
1546;DHT22;766;51.502;9.752;2023-06-22T04:31:24;19.30;99.90
1546;DHT22;766;51.502;9.752;2023-06-22T04:34:00;19.20;99.90
1546;DHT22;766;51.502;9.752;2023-06-22T04:36:37;19.30;99.90
1546;DHT22;766;51.502;9.752;2023-06-22T04:39:09;19.30;99.90
1546;DHT22;766;51.502;9.752;2023-06-22T04:41:38;19.30;99.90
1546;DHT22;766;51.502;9.752;2023-06-22T04:44:10;19.40;99.90
1546;DHT22;766;51.502;9.752;2023-06-22T04:46:40;19.10;99.90
1546;DHT22;766;51.502;9.752;2023-06-22T04:49:09;19.20;99.90
1546;DHT22;766;51.502;9.752;2023-06-22T04:51:39;19.30;99.90
1546;DHT22;766;51.502;9.752;2023-06-22T04:54:17;19.40;99.90
1546;DHT22;766;51.502;9.752;2023-06-22T04:56:45;19.30;99.90
1546;DHT22;766;51.502;9.752;2023-06-22T04:59:15;19.20;99.90
1546;DHT22;766;51.502;9.752;2023-06-22T05:01:46;19.30;99.90
1546;DHT22;766;51.502;9.752;2023-06-22T05:04:15;19.30;99.90
1546;DHT22;766;51.502;9.752;2023-06-22T05:06:44;19.40;99.90
1546;DHT22;766;51.502;9.752;2023-06-22T05:09:12;19.30;99.90
1546;DHT22;766;51.502;9.752;2023-06-22T05:11:41;19.20;99.90
1546;DHT22;766;51.502;9.752;2023-06-22T05:14:09;19.30;99.90
1546;DHT22;766;51.502;9.752;2023-06-22T05:16:38;19.20;99.90
1546;DHT22;766;51.502;9.752;2023-06-22T05:19:12;19.20;99.90
1546;DHT22;766;51.502;9.752;2023-06-22T05:21:40;19.10;99.90
1546;DHT22;766;51.502;9.752;2023-06-22T05:24:09;19.10;99.90
1546;DHT22;766;51.502;9.752;2023-06-22T05:26:37;18.80;99.90
1546;DHT22;766;51.502;9.752;2023-06-22T05:29:06;18.90;99.90
1546;DHT22;766;51.502;9.752;2023-06-22T05:31:35;19.10;99.90
1546;DHT22;766;51.502;9.752;2023-06-22T05:34:04;19.20;99.90
1546;DHT22;766;51.502;9.752;2023-06-22T05:36:34;19.30;99.90
1546;DHT22;766;51.502;9.752;2023-06-22T05:39:11;19.20;99.90
1546;DHT22;766;51.502;9.752;2023-06-22T05:41:41;19.00;99.90
1546;DHT22;766;51.502;9.752;2023-06-22T05:44:10;19.20;99.90
1546;DHT22;766;51.502;9.752;2023-06-22T05:46:41;19.30;99.90
1546;DHT22;766;51.502;9.752;2023-06-22T05:49:11;19.20;99.90
1546;DHT22;766;51.502;9.752;2023-06-22T05:51:42;19.10;99.90
1546;DHT22;766;51.502;9.752;2023-06-22T05:54:10;19.20;99.90
1546;DHT22;766;51.502;9.752;2023-06-22T05:56:40;19.30;99.90
1546;DHT22;766;51.502;9.752;2023-06-22T05:59:08;19.40;99.90
1546;DHT22;766;51.502;9.752;2023-06-22T06:01:37;19.50;99.90
1546;DHT22;766;51.502;9.752;2023-06-22T06:04:07;19.50;99.90
1546;DHT22;766;51.502;9.752;2023-06-22T06:06:36;19.50;99.90
1546;DHT22;766;51.502;9.752;2023-06-22T06:09:06;19.60;99.90
1546;DHT22;766;51.502;9.752;2023-06-22T06:11:35;19.80;99.90
1546;DHT22;766;51.502;9.752;2023-06-22T06:14:04;19.90;99.90
1546;DHT22;766;51.502;9.752;2023-06-22T06:16:32;20.10;99.90
1546;DHT22;766;51.502;9.752;2023-06-22T06:19:00;20.40;99.90
1546;DHT22;766;51.502;9.752;2023-06-22T06:21:29;20.60;99.90
1546;DHT22;766;51.502;9.752;2023-06-22T06:23:57;20.90;99.90
1546;DHT22;766;51.502;9.752;2023-06-22T06:26:27;21.10;99.90
1546;DHT22;766;51.502;9.752;2023-06-22T06:28:57;21.30;99.90
1546;DHT22;766;51.502;9.752;2023-06-22T06:31:25;21.40;99.90
1546;DHT22;766;51.502;9.752;2023-06-22T06:33:55;21.50;99.90
1546;DHT22;766;51.502;9.752;2023-06-22T06:36:27;21.60;99.90
1546;DHT22;766;51.502;9.752;2023-06-22T06:38:56;21.60;99.90
1546;DHT22;766;51.502;9.752;2023-06-22T06:41:24;21.60;99.90
1546;DHT22;766;51.502;9.752;2023-06-22T06:43:54;21.70;99.90
1546;DHT22;766;51.502;9.752;2023-06-22T06:46:23;21.70;99.90
1546;DHT22;766;51.502;9.752;2023-06-22T06:48:52;21.90;99.90
1546;DHT22;766;51.502;9.752;2023-06-22T06:51:20;22.10;99.90
1546;DHT22;766;51.502;9.752;2023-06-22T06:53:49;22.20;99.90
1546;DHT22;766;51.502;9.752;2023-06-22T06:56:17;22.30;99.90
1546;DHT22;766;51.502;9.752;2023-06-22T06:58:45;22.50;99.90
1546;DHT22;766;51.502;9.752;2023-06-22T07:01:16;22.60;99.90
1546;DHT22;766;51.502;9.752;2023-06-22T07:03:48;22.80;99.90
1546;DHT22;766;51.502;9.752;2023-06-22T07:06:20;22.90;99.90
1546;DHT22;766;51.502;9.752;2023-06-22T07:08:48;23.30;99.90
1546;DHT22;766;51.502;9.752;2023-06-22T07:11:18;23.30;99.90
1546;DHT22;766;51.502;9.752;2023-06-22T07:13:46;23.10;99.90
1546;DHT22;766;51.502;9.752;2023-06-22T07:16:16;22.80;99.90
1546;DHT22;766;51.502;9.752;2023-06-22T07:18:45;22.90;99.90
1546;DHT22;766;51.502;9.752;2023-06-22T07:21:13;23.00;99.90
1546;DHT22;766;51.502;9.752;2023-06-22T07:23:42;23.20;99.90
1546;DHT22;766;51.502;9.752;2023-06-22T07:26:11;23.30;99.90
1546;DHT22;766;51.502;9.752;2023-06-22T07:28:41;23.50;99.90
1546;DHT22;766;51.502;9.752;2023-06-22T07:31:10;24.00;99.90
1546;DHT22;766;51.502;9.752;2023-06-22T07:33:40;24.00;99.90
1546;DHT22;766;51.502;9.752;2023-06-22T07:36:08;24.00;99.90
1546;DHT22;766;51.502;9.752;2023-06-22T07:38:37;24.60;99.90
1546;DHT22;766;51.502;9.752;2023-06-22T07:41:05;25.30;99.90
1546;DHT22;766;51.502;9.752;2023-06-22T07:43:33;25.30;99.90
1546;DHT22;766;51.502;9.752;2023-06-22T07:46:09;25.70;99.90
1546;DHT22;766;51.502;9.752;2023-06-22T07:48:39;26.30;99.90
1546;DHT22;766;51.502;9.752;2023-06-22T07:51:08;25.70;99.90
1546;DHT22;766;51.502;9.752;2023-06-22T07:53:39;26.90;99.90
1546;DHT22;766;51.502;9.752;2023-06-22T07:56:10;27.50;99.90
1546;DHT22;766;51.502;9.752;2023-06-22T07:58:39;28.90;99.90
1546;DHT22;766;51.502;9.752;2023-06-22T08:01:07;29.20;99.90
1546;DHT22;766;51.502;9.752;2023-06-22T08:03:36;29.10;99.90
1546;DHT22;766;51.502;9.752;2023-06-22T08:06:07;26.30;99.90
1546;DHT22;766;51.502;9.752;2023-06-22T08:08:37;25.30;99.90
1546;DHT22;766;51.502;9.752;2023-06-22T08:11:05;26.90;99.90
1546;DHT22;766;51.502;9.752;2023-06-22T08:13:34;28.20;99.90
1546;DHT22;766;51.502;9.752;2023-06-22T08:16:02;29.60;99.90
1546;DHT22;766;51.502;9.752;2023-06-22T08:18:30;28.90;99.90
1546;DHT22;766;51.502;9.752;2023-06-22T08:20:59;30.40;99.90
1546;DHT22;766;51.502;9.752;2023-06-22T08:23:33;31.70;99.90
1546;DHT22;766;51.502;9.752;2023-06-22T08:26:02;32.50;99.90
1546;DHT22;766;51.502;9.752;2023-06-22T08:28:30;31.40;99.90
1546;DHT22;766;51.502;9.752;2023-06-22T08:30:59;31.80;99.90
1546;DHT22;766;51.502;9.752;2023-06-22T08:33:28;30.00;99.90
1546;DHT22;766;51.502;9.752;2023-06-22T08:35:58;29.10;99.90
1546;DHT22;766;51.502;9.752;2023-06-22T08:38:27;29.70;99.90
1546;DHT22;766;51.502;9.752;2023-06-22T08:41:03;29.40;99.90
1546;DHT22;766;51.502;9.752;2023-06-22T08:43:31;29.90;99.90
1546;DHT22;766;51.502;9.752;2023-06-22T08:46:00;30.60;99.90
1546;DHT22;766;51.502;9.752;2023-06-22T08:48:31;31.40;99.90
1546;DHT22;766;51.502;9.752;2023-06-22T08:51:00;31.50;99.90
1546;DHT22;766;51.502;9.752;2023-06-22T08:53:29;29.40;99.90
1546;DHT22;766;51.502;9.752;2023-06-22T08:55:58;30.10;99.90
1546;DHT22;766;51.502;9.752;2023-06-22T08:58:27;31.50;99.90
1546;DHT22;766;51.502;9.752;2023-06-22T09:00:55;31.80;99.90
1546;DHT22;766;51.502;9.752;2023-06-22T09:03:28;30.80;99.90
1546;DHT22;766;51.502;9.752;2023-06-22T09:05:56;31.70;99.90
1546;DHT22;766;51.502;9.752;2023-06-22T09:08:25;30.60;99.90
1546;DHT22;766;51.502;9.752;2023-06-22T09:10:53;30.80;99.90
1546;DHT22;766;51.502;9.752;2023-06-22T09:13:22;31.40;99.90
1546;DHT22;766;51.502;9.752;2023-06-22T09:15:52;30.30;99.90
1546;DHT22;766;51.502;9.752;2023-06-22T09:18:21;30.80;99.90
1546;DHT22;766;51.502;9.752;2023-06-22T09:20:49;30.30;99.90
1546;DHT22;766;51.502;9.752;2023-06-22T09:23:18;31.30;99.90
1546;DHT22;766;51.502;9.752;2023-06-22T09:25:47;30.20;99.90
1546;DHT22;766;51.502;9.752;2023-06-22T09:28:15;29.60;99.90
1546;DHT22;766;51.502;9.752;2023-06-22T09:30:45;31.30;99.90
1546;DHT22;766;51.502;9.752;2023-06-22T09:33:14;32.70;99.90
1546;DHT22;766;51.502;9.752;2023-06-22T09:35:43;32.50;99.90
1546;DHT22;766;51.502;9.752;2023-06-22T09:38:12;32.80;99.90
1546;DHT22;766;51.502;9.752;2023-06-22T09:40:41;31.90;99.90
1546;DHT22;766;51.502;9.752;2023-06-22T09:43:10;31.70;99.90
1546;DHT22;766;51.502;9.752;2023-06-22T09:45:39;31.30;99.90
1546;DHT22;766;51.502;9.752;2023-06-22T09:48:09;29.30;99.90
1546;DHT22;766;51.502;9.752;2023-06-22T09:50:39;29.90;99.90
1546;DHT22;766;51.502;9.752;2023-06-22T09:53:07;30.10;99.90
1546;DHT22;766;51.502;9.752;2023-06-22T09:55:36;29.90;99.90
1546;DHT22;766;51.502;9.752;2023-06-22T09:58:06;28.80;99.90
1546;DHT22;766;51.502;9.752;2023-06-22T10:00:39;29.50;99.90
1546;DHT22;766;51.502;9.752;2023-06-22T10:03:08;29.60;99.90
1546;DHT22;766;51.502;9.752;2023-06-22T10:05:39;29.40;99.90
1546;DHT22;766;51.502;9.752;2023-06-22T10:08:07;30.70;99.90
1546;DHT22;766;51.502;9.752;2023-06-22T10:10:37;31.50;99.90
1546;DHT22;766;51.502;9.752;2023-06-22T10:13:08;30.90;99.90
1546;DHT22;766;51.502;9.752;2023-06-22T10:15:38;30.70;99.90
1546;DHT22;766;51.502;9.752;2023-06-22T10:18:09;30.60;99.90
1546;DHT22;766;51.502;9.752;2023-06-22T10:20:53;30.40;99.90
1546;DHT22;766;51.502;9.752;2023-06-22T10:23:38;30.20;99.90
1546;DHT22;766;51.502;9.752;2023-06-22T10:26:17;29.20;99.90
1546;DHT22;766;51.502;9.752;2023-06-22T10:28:49;28.50;99.90
1546;DHT22;766;51.502;9.752;2023-06-22T10:31:38;29.10;99.90
1546;DHT22;766;51.502;9.752;2023-06-22T10:34:07;29.80;99.90
1546;DHT22;766;51.502;9.752;2023-06-22T10:36:38;28.70;99.90
1546;DHT22;766;51.502;9.752;2023-06-22T10:39:06;29.20;99.90
1546;DHT22;766;51.502;9.752;2023-06-22T10:41:35;29.30;99.90
1546;DHT22;766;51.502;9.752;2023-06-22T10:44:04;29.20;99.90
1546;DHT22;766;51.502;9.752;2023-06-22T10:46:32;29.80;99.90
1546;DHT22;766;51.502;9.752;2023-06-22T10:49:01;30.30;99.90
1546;DHT22;766;51.502;9.752;2023-06-22T10:51:29;28.80;99.90
1546;DHT22;766;51.502;9.752;2023-06-22T10:54:04;28.50;99.90
1546;DHT22;766;51.502;9.752;2023-06-22T10:56:32;29.00;99.90
1546;DHT22;766;51.502;9.752;2023-06-22T10:59:01;28.80;99.90
1546;DHT22;766;51.502;9.752;2023-06-22T11:01:31;29.20;99.90
1546;DHT22;766;51.502;9.752;2023-06-22T11:04:03;29.00;99.90
1546;DHT22;766;51.502;9.752;2023-06-22T11:06:32;28.70;99.90
1546;DHT22;766;51.502;9.752;2023-06-22T11:09:00;28.30;99.90
1546;DHT22;766;51.502;9.752;2023-06-22T11:11:39;28.50;99.90
1546;DHT22;766;51.502;9.752;2023-06-22T11:14:07;29.00;99.90
1546;DHT22;766;51.502;9.752;2023-06-22T11:16:36;29.30;99.90
1546;DHT22;766;51.502;9.752;2023-06-22T11:19:07;29.10;99.90
1546;DHT22;766;51.502;9.752;2023-06-22T11:21:39;28.80;99.90
1546;DHT22;766;51.502;9.752;2023-06-22T11:24:07;28.40;99.90
1546;DHT22;766;51.502;9.752;2023-06-22T11:26:36;28.80;99.90
1546;DHT22;766;51.502;9.752;2023-06-22T11:29:06;29.20;99.90
1546;DHT22;766;51.502;9.752;2023-06-22T11:31:40;28.70;99.90
1546;DHT22;766;51.502;9.752;2023-06-22T11:34:10;28.30;99.90
1546;DHT22;766;51.502;9.752;2023-06-22T11:36:39;28.40;99.90
1546;DHT22;766;51.502;9.752;2023-06-22T11:39:08;28.60;99.90
1546;DHT22;766;51.502;9.752;2023-06-22T11:41:38;28.70;99.90
1546;DHT22;766;51.502;9.752;2023-06-22T11:44:08;28.20;99.90
1546;DHT22;766;51.502;9.752;2023-06-22T11:46:37;28.40;99.90
1546;DHT22;766;51.502;9.752;2023-06-22T11:49:05;28.50;99.90
1546;DHT22;766;51.502;9.752;2023-06-22T11:51:34;28.30;99.90
1546;DHT22;766;51.502;9.752;2023-06-22T11:54:03;28.80;99.90
1546;DHT22;766;51.502;9.752;2023-06-22T11:56:33;29.20;99.90
1546;DHT22;766;51.502;9.752;2023-06-22T11:59:01;28.40;99.90
1546;DHT22;766;51.502;9.752;2023-06-22T12:01:31;28.30;99.90
1546;DHT22;766;51.502;9.752;2023-06-22T12:04:00;28.20;99.90
1546;DHT22;766;51.502;9.752;2023-06-22T12:06:33;28.70;99.90
1546;DHT22;766;51.502;9.752;2023-06-22T12:09:06;28.90;99.90
1546;DHT22;766;51.502;9.752;2023-06-22T12:11:35;28.60;99.90
1546;DHT22;766;51.502;9.752;2023-06-22T12:14:04;28.60;99.90
1546;DHT22;766;51.502;9.752;2023-06-22T12:16:34;28.90;99.90
1546;DHT22;766;51.502;9.752;2023-06-22T12:19:02;29.00;99.90
1546;DHT22;766;51.502;9.752;2023-06-22T12:21:31;28.80;99.90
1546;DHT22;766;51.502;9.752;2023-06-22T12:24:01;28.60;99.90
1546;DHT22;766;51.502;9.752;2023-06-22T12:26:33;28.50;99.90
1546;DHT22;766;51.502;9.752;2023-06-22T12:29:05;28.80;99.90
1546;DHT22;766;51.502;9.752;2023-06-22T12:31:36;28.40;99.90
1546;DHT22;766;51.502;9.752;2023-06-22T12:34:05;29.00;99.90
1546;DHT22;766;51.502;9.752;2023-06-22T12:36:34;29.00;99.90
1546;DHT22;766;51.502;9.752;2023-06-22T12:39:02;29.10;99.90
1546;DHT22;766;51.502;9.752;2023-06-22T12:41:30;28.70;99.90
1546;DHT22;766;51.502;9.752;2023-06-22T12:43:59;28.50;99.90
1546;DHT22;766;51.502;9.752;2023-06-22T12:46:27;28.50;99.90
1546;DHT22;766;51.502;9.752;2023-06-22T12:49:00;28.30;99.90
1546;DHT22;766;51.502;9.752;2023-06-22T12:51:28;28.60;99.90
1546;DHT22;766;51.502;9.752;2023-06-22T12:54:03;28.40;99.90
1546;DHT22;766;51.502;9.752;2023-06-22T12:56:31;28.30;99.90
1546;DHT22;766;51.502;9.752;2023-06-22T12:59:02;28.20;99.90
1546;DHT22;766;51.502;9.752;2023-06-22T13:01:31;28.30;99.90
1546;DHT22;766;51.502;9.752;2023-06-22T13:04:01;28.00;99.90
1546;DHT22;766;51.502;9.752;2023-06-22T13:06:30;28.20;99.90
1546;DHT22;766;51.502;9.752;2023-06-22T13:09:06;28.10;99.90
1546;DHT22;766;51.502;9.752;2023-06-22T13:11:47;28.30;99.90
1546;DHT22;766;51.502;9.752;2023-06-22T13:14:16;28.70;99.90
1546;DHT22;766;51.502;9.752;2023-06-22T13:16:44;28.90;99.90
1546;DHT22;766;51.502;9.752;2023-06-22T13:19:17;28.90;99.90
1546;DHT22;766;51.502;9.752;2023-06-22T13:21:45;28.70;99.90
1546;DHT22;766;51.502;9.752;2023-06-22T13:24:16;28.70;99.90
1546;DHT22;766;51.502;9.752;2023-06-22T13:26:45;28.80;99.90
1546;DHT22;766;51.502;9.752;2023-06-22T13:29:14;28.60;99.90
1546;DHT22;766;51.502;9.752;2023-06-22T13:31:42;28.60;99.90
1546;DHT22;766;51.502;9.752;2023-06-22T13:34:10;28.80;99.90
1546;DHT22;766;51.502;9.752;2023-06-22T13:36:40;28.70;99.90
1546;DHT22;766;51.502;9.752;2023-06-22T13:39:09;28.60;99.90
1546;DHT22;766;51.502;9.752;2023-06-22T13:41:37;28.90;99.90
1546;DHT22;766;51.502;9.752;2023-06-22T13:44:05;29.00;99.90
1546;DHT22;766;51.502;9.752;2023-06-22T13:46:34;28.30;99.90
1546;DHT22;766;51.502;9.752;2023-06-22T13:49:02;27.90;99.90
1546;DHT22;766;51.502;9.752;2023-06-22T13:51:31;27.80;99.90
1546;DHT22;766;51.502;9.752;2023-06-22T13:54:00;27.90;99.90
1546;DHT22;766;51.502;9.752;2023-06-22T13:56:29;27.90;99.90
1546;DHT22;766;51.502;9.752;2023-06-22T13:58:57;27.70;99.90
1546;DHT22;766;51.502;9.752;2023-06-22T14:01:25;27.70;99.90
1546;DHT22;766;51.502;9.752;2023-06-22T14:03:54;27.60;99.90
1546;DHT22;766;51.502;9.752;2023-06-22T14:06:23;27.80;99.90
1546;DHT22;766;51.502;9.752;2023-06-22T14:08:51;27.60;99.90
1546;DHT22;766;51.502;9.752;2023-06-22T14:11:22;27.60;99.90
1546;DHT22;766;51.502;9.752;2023-06-22T14:13:50;27.70;99.90
1546;DHT22;766;51.502;9.752;2023-06-22T14:16:19;27.70;99.90
1546;DHT22;766;51.502;9.752;2023-06-22T14:18:47;27.70;99.90
1546;DHT22;766;51.502;9.752;2023-06-22T14:21:16;27.70;99.90
1546;DHT22;766;51.502;9.752;2023-06-22T14:23:46;27.40;99.90
1546;DHT22;766;51.502;9.752;2023-06-22T14:26:16;27.40;99.90
1546;DHT22;766;51.502;9.752;2023-06-22T14:28:47;27.40;99.90
1546;DHT22;766;51.502;9.752;2023-06-22T14:31:18;27.20;99.90
1546;DHT22;766;51.502;9.752;2023-06-22T14:33:49;27.00;99.90
1546;DHT22;766;51.502;9.752;2023-06-22T14:36:17;26.90;99.90
1546;DHT22;766;51.502;9.752;2023-06-22T14:38:46;26.80;99.90
1546;DHT22;766;51.502;9.752;2023-06-22T14:41:14;26.80;99.90
1546;DHT22;766;51.502;9.752;2023-06-22T14:43:47;26.70;99.90
1546;DHT22;766;51.502;9.752;2023-06-22T14:46:17;26.60;99.90
1546;DHT22;766;51.502;9.752;2023-06-22T14:48:46;26.40;99.90
1546;DHT22;766;51.502;9.752;2023-06-22T14:51:14;26.50;99.90
1546;DHT22;766;51.502;9.752;2023-06-22T14:53:44;26.30;99.90
1546;DHT22;766;51.502;9.752;2023-06-22T14:56:14;26.30;99.90
1546;DHT22;766;51.502;9.752;2023-06-22T14:58:43;26.20;99.90
1546;DHT22;766;51.502;9.752;2023-06-22T15:01:16;26.00;99.90
1546;DHT22;766;51.502;9.752;2023-06-22T15:03:45;23.30;99.90
1546;DHT22;766;51.502;9.752;2023-06-22T15:06:13;19.70;99.90
1546;DHT22;766;51.502;9.752;2023-06-22T15:08:42;18.20;99.90
1546;DHT22;766;51.502;9.752;2023-06-22T15:11:11;18.30;99.90
1546;DHT22;766;51.502;9.752;2023-06-22T15:13:42;18.50;99.90
1546;DHT22;766;51.502;9.752;2023-06-22T15:16:10;18.40;99.90
1546;DHT22;766;51.502;9.752;2023-06-22T15:18:40;18.70;99.90
1546;DHT22;766;51.502;9.752;2023-06-22T15:21:09;18.80;99.90
1546;DHT22;766;51.502;9.752;2023-06-22T15:23:37;19.00;99.90
1546;DHT22;766;51.502;9.752;2023-06-22T15:26:05;18.30;99.90
1546;DHT22;766;51.502;9.752;2023-06-22T15:28:34;18.20;99.90
1546;DHT22;766;51.502;9.752;2023-06-22T15:31:05;18.50;99.90
1546;DHT22;766;51.502;9.752;2023-06-22T15:33:34;18.60;99.90
1546;DHT22;766;51.502;9.752;2023-06-22T15:36:05;18.60;99.90
1546;DHT22;766;51.502;9.752;2023-06-22T15:38:34;18.50;99.90
1546;DHT22;766;51.502;9.752;2023-06-22T15:41:02;18.50;99.90
1546;DHT22;766;51.502;9.752;2023-06-22T15:43:30;18.50;99.90
1546;DHT22;766;51.502;9.752;2023-06-22T15:46:00;18.50;99.90
1546;DHT22;766;51.502;9.752;2023-06-22T15:48:28;18.50;99.90
1546;DHT22;766;51.502;9.752;2023-06-22T15:50:57;18.60;99.90
1546;DHT22;766;51.502;9.752;2023-06-22T15:53:26;19.00;99.90
1546;DHT22;766;51.502;9.752;2023-06-22T15:55:55;18.70;99.90
1546;DHT22;766;51.502;9.752;2023-06-22T15:58:27;18.70;99.90
1546;DHT22;766;51.502;9.752;2023-06-22T16:00:55;18.60;99.90
1546;DHT22;766;51.502;9.752;2023-06-22T16:03:23;18.60;99.90
1546;DHT22;766;51.502;9.752;2023-06-22T16:05:54;18.90;99.90
1546;DHT22;766;51.502;9.752;2023-06-22T16:08:23;18.90;99.90
1546;DHT22;766;51.502;9.752;2023-06-22T16:10:54;18.90;99.90
1546;DHT22;766;51.502;9.752;2023-06-22T16:13:22;18.80;99.90
1546;DHT22;766;51.502;9.752;2023-06-22T16:15:51;18.80;99.90
1546;DHT22;766;51.502;9.752;2023-06-22T16:18:19;18.50;99.90
1546;DHT22;766;51.502;9.752;2023-06-22T16:20:48;18.50;99.90
1546;DHT22;766;51.502;9.752;2023-06-22T16:23:16;18.40;99.90
1546;DHT22;766;51.502;9.752;2023-06-22T16:25:45;18.40;99.90
1546;DHT22;766;51.502;9.752;2023-06-22T16:28:15;18.30;99.90
1546;DHT22;766;51.502;9.752;2023-06-22T16:30:44;18.30;99.90
1546;DHT22;766;51.502;9.752;2023-06-22T16:33:12;18.30;99.90